Time;durP1;ratioP1;P1;durP2;ratioP2;P2;SDS_P1;SDS_P2;PMS_P1;PMS_P2;Temp;Humidity;BMP_temperature;BMP_pressure;BME280_temperature;BME280_humidity;BME280_pressure;Samples;Min_cycle;Max_cycle;Signal;HPM_P1;HPM_P2
2021/03/20 00:00:45;;;;;;;5.32;1.80;;;-2.80;99.90;;;;;;4977054;28;20054;-83
2021/03/20 00:03:11;;;;;;;3.45;1.30;;;-2.90;99.90;;;;;;4994640;28;20047;-82
2021/03/20 00:05:38;;;;;;;4.38;1.55;;;-3.00;99.90;;;;;;4994413;28;20061;-82
2021/03/20 00:08:07;;;;;;;4.38;1.83;;;-3.00;99.90;;;;;;4977360;28;20529;-83
2021/03/20 00:10:33;;;;;;;2.03;1.40;;;-3.10;99.90;;;;;;4977090;28;20046;-83
2021/03/20 00:13:00;;;;;;;3.75;1.50;;;-3.10;99.90;;;;;;4977052;28;20050;-83
2021/03/20 00:15:27;;;;;;;3.05;1.35;;;-3.20;99.90;;;;;;4976928;28;20129;-83
2021/03/20 00:17:54;;;;;;;2.85;1.33;;;-3.30;99.90;;;;;;4994200;28;20138;-83
2021/03/20 00:20:29;;;;;;;3.72;1.40;;;-3.30;99.90;;;;;;4976805;28;20050;-82
2021/03/20 00:22:55;;;;;;;3.92;1.70;;;-3.40;99.90;;;;;;4976696;28;20451;-82
2021/03/20 00:25:22;;;;;;;3.95;1.70;;;-3.40;99.90;;;;;;4976984;28;20053;-82
2021/03/20 00:27:48;;;;;;;3.45;1.80;;;-3.40;99.90;;;;;;4976597;28;20586;-82
2021/03/20 00:30:15;;;;;;;3.65;1.70;;;-3.40;99.90;;;;;;4976893;28;20100;-83
2021/03/20 00:32:42;;;;;;;3.10;1.45;;;-3.50;99.90;;;;;;4993730;28;20078;-82
2021/03/20 00:35:11;;;;;;;3.78;1.92;;;-3.60;99.90;;;;;;4976690;28;20065;-82
2021/03/20 00:37:37;;;;;;;3.92;1.90;;;-3.70;99.90;;;;;;4976391;28;20104;-82
2021/03/20 00:40:12;;;;;;;3.25;1.40;;;-3.70;99.90;;;;;;4993716;28;20050;-82
2021/03/20 00:42:38;;;;;;;3.58;1.42;;;-3.80;99.90;;;;;;4976408;28;20519;-82
2021/03/20 00:45:07;;;;;;;4.90;1.90;;;-3.90;99.90;;;;;;4976807;28;20053;-82
2021/03/20 00:47:34;;;;;;;5.15;1.77;;;-4.00;99.90;;;;;;4976255;28;20042;-83
2021/03/20 00:50:01;;;;;;;3.08;1.40;;;-4.10;99.90;;;;;;4976569;28;20424;-82
2021/03/20 00:52:27;;;;;;;1.80;1.38;;;-4.10;99.90;;;;;;4993886;28;20137;-83
2021/03/20 00:54:53;;;;;;;4.43;1.98;;;-4.20;99.90;;;;;;4976423;28;20054;-83
2021/03/20 00:57:20;;;;;;;1.90;1.55;;;-4.20;99.90;;;;;;4976315;28;20129;-83
2021/03/20 00:59:47;;;;;;;2.78;2.10;;;-4.20;99.90;;;;;;4993283;28;20133;-82
2021/03/20 01:02:14;;;;;;;3.75;1.70;;;-4.20;99.90;;;;;;4976953;28;20129;-83
2021/03/20 01:04:41;;;;;;;3.80;1.60;;;-4.20;99.90;;;;;;4976386;28;20577;-83
2021/03/20 01:07:07;;;;;;;4.22;1.50;;;-4.30;99.90;;;;;;4976452;28;20085;-83
2021/03/20 01:09:34;;;;;;;2.78;1.67;;;-4.30;99.90;;;;;;4993519;28;20077;-82
2021/03/20 01:12:00;;;;;;;3.00;1.65;;;-4.30;99.90;;;;;;4976051;28;20514;-82
2021/03/20 01:14:28;;;;;;;4.43;2.22;;;-4.40;99.90;;;;;;4993513;28;20046;-83
2021/03/20 01:16:54;;;;;;;1.85;1.67;;;-4.40;99.90;;;;;;4975978;28;20054;-83
2021/03/20 01:19:21;;;;;;;4.57;1.92;;;-4.40;99.90;;;;;;4976017;28;20046;-83
2021/03/20 01:21:47;;;;;;;3.17;1.83;;;-4.40;99.90;;;;;;4975807;28;20054;-83
2021/03/20 01:24:13;;;;;;;3.67;1.80;;;-4.40;99.90;;;;;;4975997;28;20108;-83
2021/03/20 01:26:40;;;;;;;3.58;1.90;;;-4.40;99.90;;;;;;4975818;28;20050;-83
2021/03/20 01:29:07;;;;;;;1.60;1.35;;;-4.40;99.90;;;;;;4976183;28;20134;-83
2021/03/20 01:31:33;;;;;;;7.82;1.60;;;-4.50;99.90;;;;;;4975920;28;20050;-83
2021/03/20 01:34:00;;;;;;;2.65;1.48;;;-4.60;99.90;;;;;;4975999;28;20052;-83
2021/03/20 01:36:26;;;;;;;5.00;1.48;;;-4.60;99.90;;;;;;4975725;28;20054;-83
2021/03/20 01:38:52;;;;;;;3.17;1.48;;;-4.70;99.90;;;;;;4975761;28;20108;-83
2021/03/20 01:41:25;;;;;;;2.58;1.42;;;-4.80;99.90;;;;;;4975850;28;20129;-83
2021/03/20 01:43:52;;;;;;;;;;;-4.80;99.90;;;;;;4993318;28;20138;-83
2021/03/20 01:46:45;;;;;;;2.13;1.67;;;-4.80;99.90;;;;;;4994260;28;19968;-83
2021/03/20 01:49:24;;;;;;;4.95;1.50;;;-4.90;99.90;;;;;;4979689;28;20134;-83
2021/03/20 01:52:16;;;;;;;2.97;1.70;;;-5.00;99.90;;;;;;4979359;28;20058;-83
2021/03/20 01:55:05;;;;;;;8.52;1.88;;;-5.10;99.90;;;;;;4992377;28;20042;-83
2021/03/20 01:57:46;;;;;;;3.88;1.80;;;-5.10;99.90;;;;;;4979360;28;20133;-83
2021/03/20 02:00:29;;;;;;;4.90;1.40;;;-5.20;99.90;;;;;;4979453;28;20141;-82
2021/03/20 02:02:56;;;;;;;3.10;1.80;;;-5.20;99.90;;;;;;4979255;28;20047;-82
2021/03/20 02:05:26;;;;;;;3.25;1.50;;;-5.30;99.90;;;;;;4979451;28;20055;-82
2021/03/20 02:07:53;;;;;;;5.50;1.92;;;-5.30;99.90;;;;;;4996390;28;20133;-83
2021/03/20 02:10:22;;;;;;;3.42;1.83;;;-5.20;99.90;;;;;;4979342;28;20097;-83
2021/03/20 02:12:54;;;;;;;4.57;1.92;;;-5.20;99.90;;;;;;4978888;28;20487;-83
2021/03/20 02:15:47;;;;;;;4.25;1.73;;;-5.20;99.90;;;;;;4979171;28;20051;-83
2021/03/20 02:18:43;;;;;;;3.05;1.70;;;-5.20;99.90;;;;;;4979047;28;20105;-82
2021/03/20 02:21:27;;;;;;;5.55;1.90;;;-5.20;99.90;;;;;;4996070;28;20578;-83
2021/03/20 02:24:47;;;;;;;4.15;2.08;;;-5.10;99.90;;;;;;4996110;28;20081;-83
2021/03/20 02:27:51;;;;;;;4.35;1.60;;;-5.10;99.90;;;;;;4898362;29;20409;-82
2021/03/20 02:30:24;;;;;;;;;;;-5.00;99.90;;;;;;4972443;28;20517;-82
2021/03/20 02:33:11;;;;;;;6.00;2.40;;;-4.90;99.90;;;;;;4978814;28;20028;-83
2021/03/20 02:35:41;;;;;;;4.35;1.77;;;-4.80;99.90;;;;;;4995912;28;20057;-82
2021/03/20 02:38:32;;;;;;;4.20;2.28;;;-4.70;99.90;;;;;;4995936;28;20050;-83
2021/03/20 02:41:15;;;;;;;4.25;1.65;;;-4.60;99.90;;;;;;4978418;28;20499;-83
2021/03/20 02:44:12;;;;;;;5.63;2.10;;;-4.50;99.90;;;;;;4978238;28;20078;-83
2021/03/20 02:46:39;;;;;;;1.98;1.67;;;-4.30;99.90;;;;;;4995438;28;20061;-82
2021/03/20 02:49:20;;;;;;;3.38;1.67;;;-4.20;99.90;;;;;;4995818;28;20046;-83
2021/03/20 02:51:59;;;;;;;2.15;1.50;;;-4.20;99.90;;;;;;4978083;28;20133;-82
2021/03/20 02:54:36;;;;;;;3.40;1.92;;;-4.10;99.90;;;;;;4978301;28;20416;-82
2021/03/20 02:57:11;;;;;;;5.75;2.00;;;-3.90;99.90;;;;;;4978312;28;20050;-83
2021/03/20 02:59:41;;;;;;;2.30;1.50;;;-3.80;99.90;;;;;;4995243;28;20483;-83
2021/03/20 03:02:11;;;;;;;5.85;1.83;;;-3.70;99.90;;;;;;4995298;28;20525;-83
2021/03/20 03:04:49;;;;;;;4.45;1.63;;;-3.60;99.90;;;;;;4995282;28;20047;-83
2021/03/20 03:07:24;;;;;;;4.05;1.40;;;-3.60;99.90;;;;;;4978229;28;20136;-82
2021/03/20 03:09:57;;;;;;;3.35;1.40;;;-3.60;99.90;;;;;;4995418;28;20124;-83
2021/03/20 03:12:27;;;;;;;;;;;-3.50;99.90;;;;;;4978558;28;20089;-83
2021/03/20 03:15:07;;;;;;;3.45;1.77;;;-3.50;99.90;;;;;;4994235;28;20012;-83
2021/03/20 03:17:35;;;;;;;4.82;1.73;;;-3.40;99.90;;;;;;4995124;28;20129;-83
2021/03/20 03:20:30;;;;;;;1.58;1.48;;;-3.40;99.90;;;;;;4995038;28;20050;-81
2021/03/20 03:23:06;;;;;;;3.22;1.40;;;-3.30;99.90;;;;;;4977865;28;20046;-83
2021/03/20 03:25:36;;;;;;;5.63;1.63;;;-3.30;99.90;;;;;;4977665;28;20081;-83
2021/03/20 03:28:06;;;;;;;1.60;1.20;;;-3.30;99.90;;;;;;4977717;28;20093;-83
2021/03/20 03:30:35;;;;;;;3.65;1.73;;;-3.30;99.90;;;;;;4994855;28;20046;-83
2021/03/20 03:33:11;;;;;;;3.85;1.63;;;-3.30;99.90;;;;;;4977573;28;20050;-83
2021/03/20 03:35:52;;;;;;;4.32;2.55;;;-3.30;99.90;;;;;;4994443;28;20054;-83
2021/03/20 03:38:51;;;;;;;1.70;1.40;;;-3.20;99.90;;;;;;4993919;28;20134;-83
2021/03/20 03:41:33;;;;;;;3.33;2.13;;;-3.20;99.90;;;;;;4993952;28;20058;-83
2021/03/20 03:44:01;;;;;;;4.10;1.75;;;-3.20;99.90;;;;;;4976891;28;20050;-83
2021/03/20 03:46:33;;;;;;;6.07;2.10;;;-3.20;99.90;;;;;;4976430;28;20093;-83
2021/03/20 03:49:03;;;;;;;2.65;1.73;;;-3.20;99.90;;;;;;4993675;28;20379;-83
2021/03/20 03:51:30;;;;;;;5.30;1.67;;;-3.20;99.90;;;;;;4976320;28;20054;-82
2021/03/20 03:53:58;;;;;;;6.57;2.00;;;-3.20;99.90;;;;;;4976556;28;20142;-83
2021/03/20 03:56:48;;;;;;;1.70;1.20;;;-3.20;99.90;;;;;;4976313;28;20111;-83
2021/03/20 03:59:16;;;;;;;3.17;1.60;;;-3.10;99.90;;;;;;4993548;28;20468;-83
2021/03/20 04:02:21;;;;;;;2.53;1.50;;;-3.10;99.90;;;;;;4976211;28;20054;-83
2021/03/20 04:05:09;;;;;;;3.13;1.60;;;-3.00;99.90;;;;;;4976417;28;20073;-83
2021/03/20 04:07:58;;;;;;;5.07;1.63;;;-3.00;99.90;;;;;;4976054;28;20536;-83
2021/03/20 04:10:50;;;;;;;4.25;1.80;;;-3.00;99.90;;;;;;4993159;28;20471;-83
2021/03/20 04:13:47;;;;;;;2.72;1.55;;;-3.00;99.90;;;;;;4976283;28;20089;-82
2021/03/20 04:16:17;;;;;;;4.13;1.73;;;-3.10;99.90;;;;;;4993444;28;20450;-82
2021/03/20 04:19:12;;;;;;;2.88;1.55;;;-3.00;99.90;;;;;;4993253;28;20058;-82
2021/03/20 04:21:51;;;;;;;2.22;1.88;;;-3.00;99.90;;;;;;4975819;28;20157;-82
2021/03/20 04:24:23;;;;;;;2.80;1.88;;;-3.00;99.90;;;;;;4975972;28;20542;-81
2021/03/20 04:26:54;;;;;;;4.30;2.10;;;-3.10;99.90;;;;;;4975875;28;20141;-82
2021/03/20 04:29:41;;;;;;;4.70;1.95;;;-3.10;99.90;;;;;;4993237;28;20137;-82
2021/03/20 04:32:28;;;;;;;4.57;1.60;;;-3.20;99.90;;;;;;4975797;28;20056;-83
2021/03/20 04:34:55;;;;;;;3.75;1.60;;;-3.20;99.90;;;;;;4957600;28;523454;-82
2021/03/20 04:37:25;;;;;;;1.88;1.77;;;-3.20;99.90;;;;;;4976677;28;20118;-82
2021/03/20 04:39:53;;;;;;;6.50;1.80;;;-3.20;99.90;;;;;;4993977;28;20469;-83
2021/03/20 04:42:28;;;;;;;3.42;1.80;;;-3.20;99.90;;;;;;4993698;28;20132;-82
2021/03/20 04:44:59;;;;;;;4.03;1.80;;;-3.10;99.90;;;;;;4993740;28;20526;-83
2021/03/20 04:47:28;;;;;;;3.60;1.98;;;-3.20;99.90;;;;;;4976275;28;20462;-82
2021/03/20 04:49:58;;;;;;;1.80;1.67;;;-3.10;99.90;;;;;;4993795;28;20081;-83
2021/03/20 04:52:31;;;;;;;4.05;1.80;;;-3.10;99.90;;;;;;4993540;28;20043;-83
2021/03/20 04:54:58;;;;;;;4.60;1.70;;;-3.10;99.90;;;;;;4993543;28;20141;-82
2021/03/20 04:57:30;;;;;;;2.22;1.95;;;-3.20;99.90;;;;;;4993437;28;20070;-82
2021/03/20 05:00:01;;;;;;;3.58;1.92;;;-3.20;99.90;;;;;;4976296;28;20053;-83
2021/03/20 05:02:40;;;;;;;4.20;2.00;;;-3.20;99.90;;;;;;4993432;28;20050;-83
2021/03/20 05:05:17;;;;;;;5.95;2.00;;;-3.20;99.90;;;;;;4993714;28;20051;-82
2021/03/20 05:07:43;;;;;;;4.18;1.88;;;-3.20;99.90;;;;;;4975805;28;20133;-83
2021/03/20 05:10:30;;;;;;;3.20;1.60;;;-3.30;99.90;;;;;;4975851;28;20418;-82
2021/03/20 05:13:00;;;;;;;5.28;1.85;;;-3.20;99.90;;;;;;4975989;28;20133;-83
2021/03/20 05:15:33;;;;;;;8.95;2.55;;;-3.20;99.90;;;;;;4975868;28;20054;-83
2021/03/20 05:17:59;;;;;;;4.30;1.88;;;-3.30;99.90;;;;;;4976025;28;20141;-83
2021/03/20 05:20:26;;;;;;;5.70;2.03;;;-3.30;99.90;;;;;;4970545;28;20054;-82
2021/03/20 05:22:53;;;;;;;4.90;2.25;;;-3.30;99.90;;;;;;4996586;28;20078;-82
2021/03/20 05:25:22;;;;;;;4.95;1.90;;;-3.30;99.90;;;;;;4979748;28;20080;-83
2021/03/20 05:27:49;;;;;;;3.22;1.80;;;-3.30;99.90;;;;;;4996743;28;20046;-81
2021/03/20 05:30:16;;;;;;;1.60;1.50;;;-3.30;99.90;;;;;;4979984;28;20073;-83
2021/03/20 05:32:43;;;;;;;5.82;2.00;;;-3.30;99.90;;;;;;4979706;28;20125;-83
2021/03/20 05:35:20;;;;;;;4.18;2.00;;;-3.20;99.90;;;;;;4979629;28;20062;-83
2021/03/20 05:37:46;;;;;;;4.55;2.50;;;-3.30;99.90;;;;;;4995683;28;20109;-83
2021/03/20 05:40:29;;;;;;;2.33;1.83;;;-3.30;99.90;;;;;;4996868;28;20050;-83
2021/03/20 05:43:04;;;;;;;5.57;1.90;;;-3.20;99.90;;;;;;4996815;28;20046;-83
2021/03/20 05:45:42;;;;;;;5.33;2.03;;;-3.20;99.90;;;;;;4996640;28;20083;-83
2021/03/20 05:48:43;;;;;;;5.10;2.63;;;-3.10;99.90;;;;;;4996735;28;20458;-83
2021/03/20 05:51:35;;;;;;;3.15;2.17;;;-3.10;99.90;;;;;;4965586;28;20136;-84
2021/03/20 05:54:18;;;;;;;2.75;2.20;;;-3.00;99.90;;;;;;4979135;28;20396;-83
2021/03/20 05:57:01;;;;;;;2.50;1.80;;;-2.80;99.90;;;;;;4979326;28;20050;-84
2021/03/20 06:00:06;;;;;;;2.70;2.20;;;-2.80;99.90;;;;;;4979058;28;20042;-83
2021/03/20 06:02:40;;;;;;;77.78;24.60;;;-2.80;99.90;;;;;;4982955;28;20469;-83
2021/03/20 06:05:32;;;;;;;13.57;7.50;;;-2.90;99.90;;;;;;4996865;28;20076;-83
2021/03/20 06:08:14;;;;;;;11.95;5.00;;;-3.00;99.90;;;;;;4996381;28;20570;-83
2021/03/20 06:11:13;;;;;;;11.13;3.65;;;-3.00;99.90;;;;;;4996254;28;20130;-83
2021/03/20 06:14:01;;;;;;;77.32;23.45;;;-2.90;99.90;;;;;;4995956;28;20462;-83
2021/03/20 06:16:48;;;;;;;123.90;44.22;;;-2.90;99.90;;;;;;4978753;28;20042;-83
2021/03/20 06:19:44;;;;;;;26.95;9.40;;;-3.00;99.90;;;;;;4995964;28;20050;-83
2021/03/20 06:22:33;;;;;;;6.80;4.35;;;-2.90;99.90;;;;;;4978922;28;20133;-83
2021/03/20 06:25:40;;;;;;;29.13;12.30;;;-2.70;99.90;;;;;;4996034;28;20501;-82
2021/03/20 06:28:08;;;;;;;154.40;54.08;;;-2.70;99.90;;;;;;4995346;28;20050;-82
2021/03/20 06:30:46;;;;;;;121.75;44.55;;;-2.60;99.90;;;;;;4995957;28;20097;-83
2021/03/20 06:33:28;;;;;;;77.90;28.15;;;-2.60;99.90;;;;;;4995835;28;20471;-82
2021/03/20 06:36:13;;;;;;;56.60;21.13;;;-2.50;99.90;;;;;;4979170;28;20415;-83
2021/03/20 06:38:47;;;;;;;123.87;48.50;;;-2.50;99.90;;;;;;4978491;28;20054;-83
2021/03/20 06:41:31;;;;;;;59.40;23.13;;;-2.50;99.90;;;;;;4995508;28;20435;-82
2021/03/20 06:44:16;;;;;;;15.65;8.85;;;-2.40;99.90;;;;;;4995389;28;20149;-83
2021/03/20 06:46:44;;;;;;;14.45;9.45;;;-2.40;99.90;;;;;;4994535;28;20078;-82
2021/03/20 06:49:25;;;;;;;10.50;7.22;;;-2.40;99.90;;;;;;4995206;28;20085;-83
2021/03/20 06:51:53;;;;;;;9.80;6.80;;;-2.40;99.90;;;;;;4977855;28;20136;-83
2021/03/20 06:54:21;;;;;;;10.27;6.72;;;-2.40;99.90;;;;;;4977992;28;20138;-82
2021/03/20 06:56:50;;;;;;;8.40;7.40;;;-2.40;99.90;;;;;;4978510;28;20467;-82
2021/03/20 06:59:18;;;;;;;8.30;6.38;;;-2.30;99.90;;;;;;4995138;28;20441;-83
2021/03/20 07:02:03;;;;;;;11.60;6.35;;;-2.20;99.90;;;;;;4977765;28;20418;-83
2021/03/20 07:04:38;;;;;;;10.07;6.88;;;-2.20;99.90;;;;;;4978037;28;20137;-83
2021/03/20 07:07:28;;;;;;;18.50;14.15;;;-2.20;99.90;;;;;;4977843;28;20046;-83
2021/03/20 07:09:55;;;;;;;9.52;7.82;;;-2.20;99.90;;;;;;4978017;28;20046;-83
2021/03/20 07:12:24;;;;;;;14.45;11.23;;;-2.10;99.90;;;;;;4977933;28;20092;-83
2021/03/20 07:14:59;;;;;;;27.15;22.35;;;-2.10;99.90;;;;;;4977835;28;20410;-82
2021/03/20 07:17:31;;;;;;;13.23;11.55;;;-1.90;99.90;;;;;;4977327;28;20082;-83
2021/03/20 07:20:09;;;;;;;9.68;6.93;;;-1.90;99.90;;;;;;4994931;28;20049;-83
2021/03/20 07:22:42;;;;;;;13.63;7.95;;;-2.00;99.90;;;;;;4994944;28;20055;-83
2021/03/20 07:25:43;;;;;;;11.50;6.95;;;-1.80;99.90;;;;;;4995010;28;20046;-83
2021/03/20 07:28:13;;;;;;;10.52;7.28;;;-1.70;99.90;;;;;;4977370;28;20057;-83
2021/03/20 07:30:58;;;;;;;15.10;10.45;;;-1.60;99.90;;;;;;4994925;28;20149;-83
2021/03/20 07:33:25;;;;;;;8.57;5.10;;;-1.60;99.90;;;;;;4977696;28;20064;-83
2021/03/20 07:35:55;;;;;;;11.70;8.68;;;-1.60;99.90;;;;;;4977423;28;20051;-83
2021/03/20 07:38:28;;;;;;;7.85;6.43;;;-1.40;99.90;;;;;;4993791;28;20064;-83
2021/03/20 07:41:06;;;;;;;6.88;5.90;;;-1.50;99.90;;;;;;4995006;28;20141;-83
2021/03/20 07:43:33;;;;;;;14.20;8.05;;;-1.20;99.90;;;;;;4976872;28;20407;-83
2021/03/20 07:46:11;;;;;;;11.48;7.90;;;-1.10;99.90;;;;;;4977285;28;20054;-83
2021/03/20 07:48:40;;;;;;;185.00;58.92;;;-0.90;99.90;;;;;;4977315;28;20103;-83
2021/03/20 07:51:14;;;;;;;65.03;22.92;;;-0.90;99.90;;;;;;4994476;28;20050;-83
2021/03/20 07:53:48;;;;;;;80.55;27.88;;;-1.00;99.90;;;;;;4977126;28;20498;-82
2021/03/20 07:56:26;;;;;;;;;;;-1.10;99.90;;;;;;4970562;28;20085;-83
2021/03/20 07:59:17;;;;;;;48.08;18.05;;;-1.20;99.90;;;;;;4993249;28;20290;-83
2021/03/20 08:01:51;;;;;;;39.33;17.75;;;-0.90;99.90;;;;;;4994211;28;20090;-83
2021/03/20 08:04:17;;;;;;;75.95;28.38;;;-0.70;99.90;;;;;;4994456;28;20058;-83
2021/03/20 08:06:49;;;;;;;61.63;30.90;;;-0.40;99.90;;;;;;4994180;28;20463;-84
2021/03/20 08:09:21;;;;;;;18.52;10.93;;;-0.30;99.90;;;;;;4976846;28;20459;-83
2021/03/20 08:12:06;;;;;;;16.05;8.65;;;-0.20;99.90;;;;;;4976496;28;20090;-83
2021/03/20 08:14:51;;;;;;;10.05;7.03;;;-0.20;99.90;;;;;;4979135;28;20569;-83
2021/03/20 08:17:19;;;;;;;9.88;6.18;;;-0.10;99.90;;;;;;4976808;28;20061;-83
2021/03/20 08:19:48;;;;;;;11.88;7.40;;;0.10;99.90;;;;;;4993721;28;20057;-83
2021/03/20 08:22:23;;;;;;;11.00;6.68;;;-0.10;99.90;;;;;;4993908;28;20558;-84
2021/03/20 08:25:21;;;;;;;15.77;9.93;;;-0.20;99.90;;;;;;4978028;28;20487;-84
2021/03/20 08:28:15;;;;;;;13.50;7.30;;;0.80;99.90;;;;;;4976888;28;20147;-84
2021/03/20 08:30:54;;;;;;;62.63;30.67;;;1.30;99.90;;;;;;4994298;28;20054;-84
2021/03/20 08:33:34;;;;;;;52.83;23.10;;;1.80;99.90;;;;;;4994237;28;20057;-84
2021/03/20 08:36:15;;;;;;;15.98;8.05;;;1.60;99.90;;;;;;4977033;28;20069;-85
2021/03/20 08:38:58;;;;;;;9.30;5.55;;;2.90;99.90;;;;;;4977031;28;20050;-85
2021/03/20 08:41:44;;;;;;;32.88;16.95;;;4.30;99.90;;;;;;4994268;28;20511;-86
2021/03/20 08:44:49;;;;;;;15.38;9.55;;;4.10;99.00;;;;;;4977103;28;20054;-85
2021/03/20 08:47:34;;;;;;;13.45;7.38;;;4.10;98.00;;;;;;4976899;28;20105;-85
2021/03/20 08:50:24;;;;;;;10.52;5.75;;;4.80;98.20;;;;;;4976826;28;20514;-86
2021/03/20 08:53:11;;;;;;;7.90;3.40;;;5.80;91.70;;;;;;4977085;28;20517;-86
2021/03/20 08:55:46;;;;;;;17.20;7.90;;;5.60;83.70;;;;;;4992662;28;20050;-86
2021/03/20 08:58:34;;;;;;;9.13;2.80;;;6.00;80.60;;;;;;4976774;28;20477;-86
2021/03/20 09:01:22;;;;;;;2.90;2.70;;;7.80;79.30;;;;;;4976976;28;20426;-85
2021/03/20 09:03:51;;;;;;;6.75;4.00;;;6.30;68.70;;;;;;4993714;28;20046;-86
2021/03/20 09:06:22;;;;;;;6.70;4.22;;;6.10;83.60;;;;;;4977077;28;20518;-85
2021/03/20 09:08:52;;;;;;;4.45;2.28;;;7.10;70.10;;;;;;4994013;28;20141;-85
2021/03/20 09:11:44;;;;;;;3.15;2.40;;;8.30;63.90;;;;;;4977001;28;20056;-86
2021/03/20 09:14:28;;;;;;;2.88;2.42;;;6.50;66.20;;;;;;4976823;28;20562;-86
2021/03/20 09:16:59;;;;;;;2.55;2.22;;;8.00;77.50;;;;;;4977100;28;20133;-86
2021/03/20 09:19:28;;;;;;;6.25;3.25;;;8.50;62.20;;;;;;4977094;28;20472;-86
2021/03/20 09:21:59;;;;;;;4.03;2.40;;;6.50;68.50;;;;;;4993816;28;20486;-85
2021/03/20 09:24:29;;;;;;;5.65;3.13;;;4.80;75.40;;;;;;4976554;28;20081;-86
2021/03/20 09:26:58;;;;;;;3.78;2.50;;;4.70;77.10;;;;;;4976926;28;20054;-86
2021/03/20 09:29:33;;;;;;;2.83;2.60;;;4.50;76.10;;;;;;4976801;28;20137;-85
2021/03/20 09:32:14;;;;;;;3.60;2.70;;;4.50;87.00;;;;;;4976562;28;20065;-85
2021/03/20 09:34:49;;;;;;;4.53;2.08;;;4.60;89.10;;;;;;4976334;28;20053;-86
2021/03/20 09:37:16;;;;;;;3.33;1.95;;;5.50;89.50;;;;;;4993615;28;20154;-86
2021/03/20 09:39:47;;;;;;;3.45;2.40;;;5.20;80.70;;;;;;4993476;28;20590;-85
2021/03/20 09:42:28;;;;;;;4.43;4.03;;;4.90;81.20;;;;;;4969288;28;20137;-86
2021/03/20 09:45:04;;;;;;;3.10;2.08;;;4.60;77.60;;;;;;4976551;28;20050;-86
2021/03/20 09:47:31;;;;;;;2.25;2.05;;;4.00;90.10;;;;;;4976526;28;20452;-86
2021/03/20 09:50:20;;;;;;;5.28;2.38;;;4.20;90.70;;;;;;4993546;28;20061;-85
2021/03/20 09:53:08;;;;;;;3.13;2.00;;;4.70;86.30;;;;;;4966491;28;20447;-86
2021/03/20 09:55:45;;;;;;;1.98;1.63;;;5.20;92.90;;;;;;4976420;28;20050;-86
2021/03/20 09:58:20;;;;;;;2.50;1.83;;;7.10;69.60;;;;;;4976423;28;20133;-86
2021/03/20 10:00:52;;;;;;;1.95;1.73;;;7.40;64.30;;;;;;4976521;28;20133;-85
2021/03/20 10:03:37;;;;;;;3.10;1.77;;;7.60;58.90;;;;;;4993498;28;20046;-86
2021/03/20 10:06:28;;;;;;;2.55;1.83;;;6.60;60.90;;;;;;4976278;28;20117;-86
2021/03/20 10:09:06;;;;;;;8.65;2.22;;;6.50;62.50;;;;;;4996651;28;20054;-86
2021/03/20 10:11:42;;;;;;;2.75;1.80;;;5.30;65.80;;;;;;4996765;28;20130;-86
2021/03/20 10:14:28;;;;;;;5.32;2.13;;;4.50;67.30;;;;;;4989249;28;20145;-86
2021/03/20 10:17:15;;;;;;;3.88;1.77;;;4.40;71.30;;;;;;4979924;28;20137;-86
2021/03/20 10:19:48;;;;;;;3.50;2.13;;;5.70;80.30;;;;;;4996884;28;20042;-86
2021/03/20 10:22:24;;;;;;;3.50;1.67;;;5.80;67.90;;;;;;4989915;28;20098;-86
2021/03/20 10:24:52;;;;;;;5.97;1.70;;;6.60;64.90;;;;;;4996792;28;20077;-86
2021/03/20 10:27:34;;;;;;;3.35;1.70;;;7.50;64.80;;;;;;4996984;28;20137;-86
2021/03/20 10:30:13;;;;;;;2.67;1.43;;;7.90;59.20;;;;;;4996835;28;20047;-87
2021/03/20 10:32:54;;;;;;;2.83;1.58;;;8.80;58.00;;;;;;4996846;28;20357;-86
2021/03/20 10:35:20;;;;;;;1.38;1.27;;;9.80;55.70;;;;;;4979107;28;20054;-86
2021/03/20 10:37:46;;;;;;;2.78;1.20;;;9.60;55.40;;;;;;4979178;28;20078;-86
2021/03/20 10:40:21;;;;;;;4.97;1.33;;;10.30;50.20;;;;;;4996262;28;20061;-86
2021/03/20 10:42:50;;;;;;;39.55;23.73;;;10.40;49.80;;;;;;4979167;28;20046;-86
2021/03/20 10:45:26;;;;;;;1.20;1.20;;;9.70;50.70;;;;;;4979610;28;20478;-86
2021/03/20 10:48:00;;;;;;;3.35;1.50;;;9.40;51.80;;;;;;4979295;28;20054;-85
2021/03/20 10:50:38;;;;;;;6.63;1.75;;;10.10;50.30;;;;;;4996557;28;20411;-86
2021/03/20 10:53:12;;;;;;;3.65;1.75;;;10.80;49.30;;;;;;4979243;28;20133;-86
2021/03/20 10:55:44;;;;;;;2.90;1.92;;;12.10;49.30;;;;;;4996309;28;20051;-86
2021/03/20 10:58:18;;;;;;;2.25;1.30;;;11.80;49.50;;;;;;4978955;28;20157;-86
2021/03/20 11:00:45;;;;;;;;;;;12.10;44.80;;;;;;4996537;28;20448;-86
2021/03/20 11:03:22;;;;;;;47.33;24.73;;;11.50;45.60;;;;;;4995011;28;19995;-86
2021/03/20 11:05:49;;;;;;;6.60;5.25;;;12.00;46.00;;;;;;4996083;28;20462;-86
2021/03/20 11:08:19;;;;;;;2.15;1.95;;;12.10;48.00;;;;;;4978938;28;20050;-86
2021/03/20 11:10:48;;;;;;;4.03;2.05;;;11.70;43.40;;;;;;4978709;28;20161;-87
2021/03/20 11:13:17;;;;;;;3.33;1.52;;;9.80;45.70;;;;;;4978694;28;20502;-86
2021/03/20 11:15:46;;;;;;;6.70;3.08;;;9.70;46.40;;;;;;4995742;28;20082;-86
2021/03/20 11:18:37;;;;;;;4.68;4.07;;;9.30;44.20;;;;;;4978281;28;20069;-87
2021/03/20 11:21:23;;;;;;;4.82;2.60;;;9.70;44.40;;;;;;4978562;28;20108;-86
2021/03/20 11:24:15;;;;;;;5.68;4.65;;;8.90;46.60;;;;;;4994860;28;20046;-86
2021/03/20 11:26:45;;;;;;;1.42;1.33;;;8.20;45.40;;;;;;4995657;28;20054;-87
2021/03/20 11:29:19;;;;;;;2.03;1.45;;;8.40;46.90;;;;;;4978435;28;20054;-87
2021/03/20 11:31:51;;;;;;;2.33;1.00;;;8.10;49.80;;;;;;4978122;28;20138;-87
2021/03/20 11:34:32;;;;;;;1.20;0.95;;;7.70;46.70;;;;;;4995638;28;20100;-87
2021/03/20 11:37:01;;;;;;;11.60;2.00;;;8.30;45.50;;;;;;4978194;28;20142;-87
2021/03/20 11:39:28;;;;;;;1.70;1.25;;;8.70;44.70;;;;;;4995496;28;20046;-86
2021/03/20 11:41:59;;;;;;;2.33;1.13;;;8.60;47.20;;;;;;4978269;28;20050;-87
2021/03/20 11:44:28;;;;;;;2.15;0.80;;;9.70;48.50;;;;;;4978248;28;20487;-87
2021/03/20 11:47:00;;;;;;;1.58;1.00;;;10.90;43.20;;;;;;4978293;28;20447;-87
2021/03/20 11:49:43;;;;;;;1.77;1.20;;;11.50;40.60;;;;;;4995453;28;20046;-87
2021/03/20 11:52:19;;;;;;;5.43;2.38;;;11.80;42.10;;;;;;4994242;28;20085;-87
2021/03/20 11:54:46;;;;;;;3.10;1.20;;;9.40;42.40;;;;;;4995127;28;20141;-87
2021/03/20 11:57:21;;;;;;;1.30;1.17;;;7.90;47.40;;;;;;4978164;28;20137;-86
2021/03/20 11:59:49;;;;;;;4.43;1.30;;;6.80;49.00;;;;;;4977942;28;20092;-87
2021/03/20 12:02:24;;;;;;;1.52;0.93;;;6.10;50.40;;;;;;4977966;28;20475;-86
2021/03/20 12:05:19;;;;;;;17.75;15.27;;;6.20;52.60;;;;;;4977863;28;20495;-87
2021/03/20 12:07:46;;;;;;;3.03;1.58;;;6.60;51.80;;;;;;4995025;28;20137;-88
2021/03/20 12:10:15;;;;;;;1.38;1.30;;;6.00;51.80;;;;;;4977992;28;20419;-86
2021/03/20 12:12:56;;;;;;;2.00;1.00;;;6.00;52.70;;;;;;4994721;28;20302;-87
2021/03/20 12:15:34;;;;;;;1.75;0.90;;;5.90;53.10;;;;;;4994675;28;20085;-86
2021/03/20 12:18:13;;;;;;;2.90;1.40;;;5.60;53.00;;;;;;4994821;28;20047;-87
2021/03/20 12:20:42;;;;;;;4.78;1.30;;;5.70;52.40;;;;;;4977511;28;20406;-86
2021/03/20 12:23:24;;;;;;;3.03;1.45;;;5.80;52.70;;;;;;4994650;28;20137;-86
2021/03/20 12:25:54;;;;;;;2.05;1.20;;;5.60;52.20;;;;;;4994499;28;20141;-86
2021/03/20 12:28:29;;;;;;;1.70;1.13;;;5.60;54.30;;;;;;4977491;28;20137;-87
2021/03/20 12:31:28;;;;;;;1.17;1.00;;;6.40;53.40;;;;;;4977335;28;20073;-87
2021/03/20 12:34:04;;;;;;;1.73;0.90;;;7.20;50.50;;;;;;4990756;28;20054;-87
2021/03/20 12:36:43;;;;;;;1.13;1.10;;;8.80;47.30;;;;;;4994350;28;20058;-87
2021/03/20 12:39:19;;;;;;;1.63;0.93;;;9.30;46.60;;;;;;4994454;28;20097;-87
2021/03/20 12:41:49;;;;;;;2.60;1.00;;;10.20;46.00;;;;;;4976971;28;20050;-87
2021/03/20 12:44:24;;;;;;;3.83;1.30;;;10.00;45.00;;;;;;4977191;28;20145;-86
2021/03/20 12:46:56;;;;;;;2.30;1.25;;;8.50;45.50;;;;;;4977690;28;20108;-87
2021/03/20 12:49:28;;;;;;;3.45;2.13;;;7.50;47.80;;;;;;4994245;28;20046;-87
2021/03/20 12:52:04;;;;;;;2.08;1.88;;;6.60;49.50;;;;;;4977326;28;20452;-87
2021/03/20 12:54:34;;;;;;;2.28;2.00;;;6.10;52.10;;;;;;4994122;28;20058;-87
2021/03/20 12:57:01;;;;;;;2.92;1.98;;;6.00;53.60;;;;;;4977143;28;20100;-87
2021/03/20 12:59:27;;;;;;;1.58;1.38;;;5.80;54.00;;;;;;4993901;28;20050;-86
2021/03/20 13:01:54;;;;;;;1.75;1.25;;;5.30;53.40;;;;;;4977571;28;20574;-87
2021/03/20 13:04:22;;;;;;;1.42;0.90;;;5.70;53.20;;;;;;4976975;28;20056;-87
2021/03/20 13:06:48;;;;;;;4.90;4.05;;;6.30;51.90;;;;;;4977013;28;20100;-87
2021/03/20 13:09:16;;;;;;;7.25;6.60;;;5.60;52.70;;;;;;4977277;28;20050;-87
2021/03/20 13:11:43;;;;;;;1.85;1.23;;;5.40;55.00;;;;;;4976715;28;20515;-87
2021/03/20 13:14:09;;;;;;;1.65;1.15;;;5.50;53.60;;;;;;4993758;28;20444;-87
2021/03/20 13:16:36;;;;;;;2.38;1.00;;;5.80;53.20;;;;;;4993843;28;20101;-85
2021/03/20 13:19:04;;;;;;;2.63;1.02;;;5.90;54.10;;;;;;4976715;28;20050;-86
2021/03/20 13:21:31;;;;;;;1.25;1.08;;;6.20;52.50;;;;;;4993813;28;20065;-86
2021/03/20 13:23:58;;;;;;;3.85;1.20;;;6.80;51.70;;;;;;4976929;28;20483;-87
2021/03/20 13:26:28;;;;;;;1.95;1.00;;;7.40;51.00;;;;;;4994133;28;20100;-86
2021/03/20 13:28:54;;;;;;;3.17;1.02;;;7.70;49.80;;;;;;4976905;28;20050;-87
2021/03/20 13:31:22;;;;;;;2.33;1.30;;;7.90;48.90;;;;;;4976878;28;20134;-87